logo
Search for airport 
image banner adimage banner adimage banner ad
image banner ad

X63 - Dr Hermenegildo Ortiz Quinones

Located in Humacao, Puerto Rico

ICAO - X63, IATA -

Data provided by Airmate  

General information

Coordinates: N18°8'17" W65°48'3"
Elevation is 35 feet MSL.
Magnetic variation is -11° East
View others Airports in (unassigned)

Operational data

Special qualification required
Current time UTC:
Current local time:
Weather at : TJSJ - Luis Munoz Marin Intl ( 40 km )
METAR: TJSJ 290856Z 00000KT 10SM FEW026 SCT060 27/26 A3003 RMK AO2 SLP169 60005 T02670256 53001
TAF: TJSJ 290530Z 2906/3006 VRB06KT P6SM -RA FEW018 SCT025 BKN050 FM291000 00000KT P6SM VCSH SCT025 BKN070 FM291400 07015KT P6SM FEW025 SCT050 FM291700 08013KT P6SM VCTS SCT030CB SCT050 FM292300 10008KT P6SM VCSH SCT028 SCT050 BKN120
View NOTAMs / SUP AIP / TFR affecting this airport [VIEW]
Communications frequencies: [VIEW]

Runways:

RWY identifierQFULength (ft)Width (ft)SurfaceLDA (ft)
1094°245860ASPH
28274°245860ASPH

Airport contact information

Address: Humacao Puerto Rico

Satellite view of X63